Time;durP1;ratioP1;P1;durP2;ratioP2;P2;SDS_P1;SDS_P2;PMS_P1;PMS_P2;Temp;Humidity;BMP_temperature;BMP_pressure;BME280_temperature;BME280_humidity;BME280_pressure;Samples;Min_cycle;Max_cycle;Signal;HPM_P1;HPM_P2
2022/05/09 00:00:30;;;;;;;11.07;4.20;;;9.20;95.00;;;;;;5016309;28;93103;-71
2022/05/09 00:02:57;;;;;;;13.65;4.07;;;9.20;94.60;;;;;;5015206;28;91628;-71
2022/05/09 00:05:27;;;;;;;14.35;5.18;;;9.10;94.80;;;;;;5015121;28;92494;-71
2022/05/09 00:07:54;;;;;;;14.20;4.57;;;9.10;94.80;;;;;;5015855;28;93141;-71
2022/05/09 00:10:24;;;;;;;12.68;4.97;;;9.10;94.90;;;;;;5013946;28;94884;-71
2022/05/09 00:12:51;;;;;;;13.15;4.55;;;9.10;95.00;;;;;;5016383;28;92385;-71
2022/05/09 00:15:20;;;;;;;13.73;4.47;;;9.10;95.10;;;;;;5015053;28;92462;-71
2022/05/09 00:17:47;;;;;;;19.50;5.00;;;9.10;95.10;;;;;;5029016;28;93247;-71
2022/05/09 00:20:16;;;;;;;15.93;5.22;;;9.00;95.20;;;;;;5036272;28;96786;-71
2022/05/09 00:22:54;;;;;;;14.23;5.20;;;9.10;95.10;;;;;;5016859;28;103589;-71
2022/05/09 00:25:24;;;;;;;13.23;5.25;;;9.10;95.10;;;;;;5036355;28;92449;-71
2022/05/09 00:27:51;;;;;;;16.80;4.82;;;9.00;95.60;;;;;;5036193;28;96148;-71
2022/05/09 00:30:18;;;;;;;17.48;4.78;;;9.00;95.60;;;;;;5018151;28;92511;-71
2022/05/09 00:32:45;;;;;;;12.13;5.38;;;9.00;95.60;;;;;;5017758;28;92499;-71
2022/05/09 00:35:13;;;;;;;19.83;5.25;;;8.90;95.70;;;;;;5035111;28;94867;-71
2022/05/09 00:37:40;;;;;;;13.40;4.68;;;8.90;95.70;;;;;;5034376;28;94838;-71
2022/05/09 00:40:11;;;;;;;14.23;4.85;;;8.90;95.70;;;;;;5017297;28;95654;-71
2022/05/09 00:42:44;;;;;;;12.52;4.70;;;8.90;95.80;;;;;;5018468;28;92453;-71
2022/05/09 00:45:13;;;;;;;12.18;4.65;;;8.90;95.80;;;;;;5034425;28;92532;-71
2022/05/09 00:47:40;;;;;;;14.80;5.28;;;8.90;95.90;;;;;;5034204;28;95929;-71
2022/05/09 00:50:09;;;;;;;15.93;6.15;;;8.90;95.90;;;;;;5017599;28;93034;-71
2022/05/09 00:52:46;;;;;;;19.80;6.25;;;8.80;95.80;;;;;;5036153;28;91675;-71
2022/05/09 00:55:20;;;;;;;9.73;4.35;;;8.80;96.00;;;;;;5035792;28;92389;-71
2022/05/09 00:58:00;;;;;;;13.40;5.53;;;8.80;96.50;;;;;;5035841;28;93319;-71
2022/05/09 01:00:27;;;;;;;17.55;5.80;;;8.80;98.30;;;;;;5015925;28;95737;-71
2022/05/09 01:03:10;;;;;;;10.80;4.97;;;8.80;98.30;;;;;;5017714;28;92550;-71
2022/05/09 01:05:38;;;;;;;14.52;5.53;;;8.80;98.20;;;;;;5034066;28;93378;-71
2022/05/09 01:08:05;;;;;;;15.60;5.55;;;8.70;98.40;;;;;;5017025;28;95989;-71
2022/05/09 01:10:37;;;;;;;17.95;5.95;;;8.70;98.80;;;;;;5017147;28;95587;-71
2022/05/09 01:13:08;;;;;;;15.77;5.53;;;8.70;99.70;;;;;;5035641;28;92465;-71
2022/05/09 01:15:36;;;;;;;11.90;4.80;;;8.70;99.80;;;;;;5035292;28;92713;-71
2022/05/09 01:18:07;;;;;;;11.10;5.18;;;8.70;99.80;;;;;;5017044;28;95615;-71
2022/05/09 01:20:35;;;;;;;17.45;5.55;;;8.70;99.60;;;;;;5034073;28;92544;-71
2022/05/09 01:23:03;;;;;;;12.98;5.72;;;8.70;99.70;;;;;;5035255;28;92415;-71
2022/05/09 01:25:32;;;;;;;13.55;5.88;;;8.70;99.80;;;;;;5016062;28;94889;-71
2022/05/09 01:27:59;;;;;;;16.88;5.65;;;8.70;99.90;;;;;;5034898;28;93693;-71
2022/05/09 01:30:49;;;;;;;18.38;5.63;;;8.70;99.80;;;;;;5034980;28;103111;-71
2022/05/09 01:33:35;;;;;;;12.30;5.15;;;8.70;99.90;;;;;;5000605;28;92520;-71
2022/05/09 01:36:15;;;;;;;15.65;5.43;;;8.70;99.90;;;;;;5021102;28;92665;-71
2022/05/09 01:38:52;;;;;;;13.90;6.28;;;8.60;99.90;;;;;;5020697;28;93258;-71
2022/05/09 01:41:19;;;;;;;12.98;5.85;;;8.60;99.90;;;;;;5020124;28;98464;-71
2022/05/09 01:43:49;;;;;;;19.27;6.53;;;8.60;99.90;;;;;;5039380;28;91783;-71
2022/05/09 01:46:27;;;;;;;11.45;5.07;;;8.60;99.90;;;;;;5038928;28;93290;-71
2022/05/09 01:51:44;;;;;;;15.93;6.03;;;8.60;99.90;;;;;;5037356;28;94810;-71
2022/05/09 01:54:12;;;;;;;13.98;5.70;;;8.60;99.90;;;;;;5020109;28;92451;-71
2022/05/09 01:56:41;;;;;;;21.98;6.05;;;8.50;99.90;;;;;;5003688;28;92590;-71
2022/05/09 01:59:11;;;;;;;13.90;5.97;;;8.50;99.90;;;;;;5020166;28;93250;-71
2022/05/09 02:02:03;;;;;;;20.70;6.68;;;8.50;99.90;;;;;;5020333;28;93166;-71
2022/05/09 02:04:31;;;;;;;17.35;6.18;;;8.50;99.90;;;;;;5038476;28;92412;-71
2022/05/09 02:06:57;;;;;;;16.58;5.78;;;8.50;99.90;;;;;;5038442;28;92453;-71
2022/05/09 02:09:24;;;;;;;16.30;6.10;;;8.50;99.90;;;;;;5037307;28;91828;-71
2022/05/09 02:11:51;;;;;;;17.48;6.38;;;8.50;99.90;;;;;;5036426;28;107358;-71
2022/05/09 02:14:18;;;;;;;18.23;6.57;;;8.50;99.90;;;;;;5020337;28;92956;-71
2022/05/09 02:16:45;;;;;;;13.98;6.15;;;8.50;99.90;;;;;;5002170;28;94876;-71
2022/05/09 02:19:12;;;;;;;18.13;6.82;;;8.50;99.90;;;;;;5018830;28;95753;-71
2022/05/09 02:21:39;;;;;;;14.18;5.82;;;8.50;99.90;;;;;;5038030;28;92906;-71
2022/05/09 02:24:07;;;;;;;12.63;5.75;;;8.50;99.90;;;;;;5019974;28;92804;-71
2022/05/09 02:26:34;;;;;;;13.48;5.78;;;8.50;99.90;;;;;;5036769;28;92473;-71
2022/05/09 02:29:00;;;;;;;17.67;6.45;;;8.40;99.90;;;;;;5003237;28;94928;-71
2022/05/09 02:31:27;;;;;;;12.30;6.30;;;8.40;99.90;;;;;;5019856;28;95554;-71
2022/05/09 02:33:54;;;;;;;13.32;6.50;;;8.40;99.90;;;;;;5020471;28;92961;-71
2022/05/09 02:36:21;;;;;;;18.02;6.38;;;8.40;99.90;;;;;;5037936;28;92435;-71
2022/05/09 02:38:48;;;;;;;18.00;6.03;;;8.40;99.90;;;;;;5019425;28;94287;-71
2022/05/09 02:41:15;;;;;;;14.73;6.45;;;8.30;99.90;;;;;;5001645;28;95668;-71
2022/05/09 02:43:42;;;;;;;15.07;6.53;;;8.30;99.90;;;;;;5020187;28;92960;-71
2022/05/09 02:46:10;;;;;;;17.00;6.43;;;8.30;99.90;;;;;;5037219;27;92479;-71
2022/05/09 02:48:38;;;;;;;18.70;6.85;;;8.30;99.90;;;;;;5019745;28;93104;-71
2022/05/09 02:51:06;;;;;;;15.27;6.97;;;8.30;99.90;;;;;;5037897;28;93603;-71
2022/05/09 02:53:34;;;;;;;13.70;6.57;;;8.30;99.90;;;;;;5037449;28;92471;-71
2022/05/09 02:56:02;;;;;;;12.75;6.55;;;8.20;99.90;;;;;;5037831;28;92883;-71
2022/05/09 02:58:29;;;;;;;16.52;6.38;;;8.10;99.90;;;;;;5037435;28;91614;-71
2022/05/09 03:00:56;;;;;;;15.10;6.47;;;8.10;99.90;;;;;;5019420;28;93559;-71
2022/05/09 03:06:09;;;;;;;20.55;7.15;;;8.10;99.90;;;;;;5017623;28;95070;-71
2022/05/09 03:08:36;;;;;;;13.48;5.78;;;8.00;99.90;;;;;;5037480;28;93294;-71
2022/05/09 03:11:03;;;;;;;32.33;15.93;;;7.90;99.90;;;;;;5037350;28;93077;-71
2022/05/09 03:13:30;;;;;;;11.77;5.38;;;7.90;99.90;;;;;;5018222;28;92438;-71
2022/05/09 03:16:01;;;;;;;9.43;5.80;;;7.90;99.90;;;;;;5019656;28;92816;-71
2022/05/09 03:18:28;;;;;;;13.25;5.45;;;7.80;99.90;;;;;;5019646;28;93251;-71
2022/05/09 03:20:55;;;;;;;12.27;5.90;;;7.80;99.90;;;;;;5037099;28;93183;-71
2022/05/09 03:23:22;;;;;;;12.43;5.72;;;7.80;99.90;;;;;;5037449;28;91838;-71
2022/05/09 03:25:49;;;;;;;11.73;5.65;;;7.70;99.90;;;;;;5018738;28;93390;-71
2022/05/09 03:28:19;;;;;;;9.88;4.93;;;7.70;99.90;;;;;;5036759;28;93254;-71
2022/05/09 03:30:49;;;;;;;12.05;5.45;;;7.70;99.90;;;;;;5017686;28;95562;-71
2022/05/09 03:33:16;;;;;;;10.43;5.60;;;7.70;99.90;;;;;;5018084;28;103975;-71
2022/05/09 03:35:44;;;;;;;13.30;5.63;;;7.70;99.90;;;;;;5037159;28;92450;-71
2022/05/09 03:38:11;;;;;;;11.90;5.28;;;7.70;99.90;;;;;;5002330;28;95736;-71
2022/05/09 03:40:39;;;;;;;11.95;5.45;;;7.60;99.90;;;;;;5018694;28;95589;-71
2022/05/09 03:43:06;;;;;;;10.68;5.95;;;7.60;99.90;;;;;;5037178;28;92949;-71
2022/05/09 03:45:35;;;;;;;11.60;5.63;;;7.60;99.90;;;;;;5035349;28;92444;-71
2022/05/09 03:48:03;;;;;;;8.35;5.20;;;7.50;99.90;;;;;;5035893;28;92444;-71
2022/05/09 03:50:30;;;;;;;9.57;5.55;;;7.50;99.90;;;;;;5002129;28;92514;-71
2022/05/09 03:52:57;;;;;;;9.55;5.30;;;7.50;99.90;;;;;;5018676;28;92527;-71
2022/05/09 03:55:24;;;;;;;10.10;6.00;;;7.40;99.90;;;;;;5017569;28;94794;-71
2022/05/09 03:57:54;;;;;;;10.10;5.70;;;7.40;99.90;;;;;;5000758;28;98159;-71
2022/05/09 04:00:25;;;;;;;15.48;6.75;;;7.50;99.90;;;;;;5017854;28;96437;-71
2022/05/09 04:02:52;;;;;;;11.65;6.65;;;7.50;99.90;;;;;;5032664;28;92628;-71
2022/05/09 04:05:20;;;;;;;16.95;6.90;;;7.40;99.90;;;;;;5018568;28;92462;-71
2022/05/09 04:07:50;;;;;;;16.33;7.15;;;7.50;99.90;;;;;;5018095;28;96448;-71
2022/05/09 04:10:22;;;;;;;21.35;7.10;;;7.60;99.90;;;;;;5036401;28;93090;-71
2022/05/09 04:12:49;;;;;;;16.42;7.35;;;7.60;99.90;;;;;;5018607;28;91725;-71
2022/05/09 04:18:03;;;;;;;15.63;6.80;;;7.60;99.90;;;;;;5036120;28;93277;-71
2022/05/09 04:20:31;;;;;;;15.85;6.85;;;7.70;99.90;;;;;;5016537;28;98456;-71
2022/05/09 04:22:59;;;;;;;16.33;7.40;;;7.80;99.90;;;;;;5036424;28;92423;-71
2022/05/09 04:25:31;;;;;;;16.02;7.10;;;7.80;99.90;;;;;;5035739;28;92389;-71
2022/05/09 04:28:06;;;;;;;11.15;7.47;;;8.00;99.90;;;;;;5034747;28;95651;-71
2022/05/09 04:30:35;;;;;;;15.35;6.80;;;8.10;99.90;;;;;;5017604;28;95571;-71
2022/05/09 04:33:07;;;;;;;12.05;6.10;;;8.10;99.90;;;;;;5034653;28;92520;-71
2022/05/09 04:35:35;;;;;;;10.77;6.45;;;8.20;99.90;;;;;;5036273;28;92819;-71
2022/05/09 04:38:03;;;;;;;13.43;6.90;;;8.30;99.90;;;;;;5034756;28;95216;-71
2022/05/09 04:40:35;;;;;;;12.85;6.50;;;8.40;99.80;;;;;;5017495;28;94727;-71
2022/05/09 04:43:02;;;;;;;16.75;6.70;;;8.60;99.90;;;;;;5036305;28;92347;-71
2022/05/09 04:45:31;;;;;;;12.30;6.03;;;8.60;99.50;;;;;;5034600;28;94973;-71
2022/05/09 04:47:59;;;;;;;11.52;7.28;;;8.80;99.40;;;;;;5034308;28;95962;-71
2022/05/09 04:50:27;;;;;;;14.85;6.78;;;8.90;99.40;;;;;;5035466;28;93058;-71
2022/05/09 04:52:54;;;;;;;14.05;6.40;;;9.10;99.20;;;;;;5036054;28;92548;-71
2022/05/09 04:55:25;;;;;;;15.18;6.38;;;9.20;98.90;;;;;;5035772;28;92367;-71
2022/05/09 04:57:52;;;;;;;16.08;7.35;;;9.40;98.60;;;;;;5033983;28;95683;-71
2022/05/09 05:00:25;;;;;;;14.15;7.00;;;9.50;98.30;;;;;;5016906;28;95170;-71
2022/05/09 05:02:53;;;;;;;14.50;7.57;;;9.60;98.10;;;;;;5036155;28;91597;-71
2022/05/09 05:05:21;;;;;;;16.13;7.05;;;9.70;98.00;;;;;;5017138;28;92507;-71
2022/05/09 05:07:48;;;;;;;17.95;7.10;;;9.70;97.90;;;;;;5016825;28;94507;-71
2022/05/09 05:10:15;;;;;;;16.50;7.20;;;9.80;97.90;;;;;;5016374;28;94910;-71
2022/05/09 05:12:42;;;;;;;15.32;7.47;;;9.80;97.80;;;;;;5035519;28;92376;-71
2022/05/09 05:15:10;;;;;;;19.30;6.75;;;9.90;97.80;;;;;;5035420;28;95621;-71
2022/05/09 05:17:37;;;;;;;12.82;6.75;;;10.00;97.60;;;;;;5013133;28;93379;-71
2022/05/09 05:20:09;;;;;;;13.48;6.63;;;10.10;97.80;;;;;;5013950;28;92582;-71
2022/05/09 05:22:38;;;;;;;10.80;6.13;;;10.30;97.40;;;;;;5030945;28;92560;-71
2022/05/09 05:25:06;;;;;;;15.18;6.18;;;10.70;97.10;;;;;;5015340;28;92422;-71
2022/05/09 05:27:33;;;;;;;10.90;6.20;;;11.20;96.20;;;;;;5015421;28;93071;-71
2022/05/09 05:30:00;;;;;;;14.57;6.43;;;11.60;95.30;;;;;;5013936;28;92463;-71
2022/05/09 05:32:35;;;;;;;10.95;6.07;;;11.90;94.90;;;;;;5013909;28;92510;-71
2022/05/09 05:35:04;;;;;;;11.35;6.00;;;12.30;93.90;;;;;;5014325;28;94816;-71
2022/05/09 05:37:32;;;;;;;15.80;5.88;;;12.50;93.40;;;;;;5014614;28;95941;-71
2022/05/09 05:40:00;;;;;;;13.85;6.68;;;12.80;93.10;;;;;;5014987;28;93567;-71
2022/05/09 05:42:28;;;;;;;14.52;5.75;;;13.20;92.40;;;;;;5015215;28;92485;-72
2022/05/09 05:44:56;;;;;;;16.73;5.78;;;13.60;91.60;;;;;;5015242;28;92366;-71
2022/05/09 05:47:23;;;;;;;12.43;6.47;;;14.00;90.90;;;;;;5014977;28;93270;-72
2022/05/09 05:49:51;;;;;;;12.45;6.32;;;14.40;90.20;;;;;;5014776;28;92952;-72
2022/05/09 05:52:20;;;;;;;10.80;6.07;;;14.70;89.10;;;;;;5014075;28;91621;-72
2022/05/09 05:54:47;;;;;;;14.27;5.90;;;14.80;87.90;;;;;;5014809;28;92436;-72
2022/05/09 05:57:22;;;;;;;11.82;6.85;;;14.80;87.20;;;;;;5014218;28;109345;-72
2022/05/09 06:00:10;;;;;;;14.02;6.03;;;14.80;85.20;;;;;;5012174;28;94938;-72
2022/05/09 06:02:44;;;;;;;15.40;6.53;;;14.80;85.20;;;;;;5014017;28;92479;-72
2022/05/09 06:05:13;;;;;;;10.43;6.25;;;14.60;85.30;;;;;;5014826;28;92421;-72
2022/05/09 06:07:40;;;;;;;15.48;6.60;;;14.50;85.20;;;;;;5014064;28;93176;-72
2022/05/09 06:10:10;;;;;;;11.57;6.18;;;14.50;85.40;;;;;;5013555;28;95578;-72
2022/05/09 06:12:37;;;;;;;12.35;5.55;;;14.50;86.00;;;;;;5014472;28;92457;-72
2022/05/09 06:17:51;;;;;;;15.02;7.15;;;14.80;85.30;;;;;;5015962;28;93677;-72
2022/05/09 06:20:19;;;;;;;11.57;6.35;;;15.40;84.30;;;;;;5030404;27;92436;-72
2022/05/09 06:22:54;;;;;;;11.80;5.97;;;15.80;82.50;;;;;;5017734;28;92624;-72
2022/05/09 06:25:49;;;;;;;11.60;5.80;;;15.90;81.50;;;;;;5014809;28;95803;-72
2022/05/09 06:28:21;;;;;;;13.50;5.95;;;15.90;81.30;;;;;;5016876;28;95796;-72
2022/05/09 06:30:48;;;;;;;9.45;5.70;;;16.00;81.20;;;;;;5017849;28;93063;-72
2022/05/09 06:33:23;;;;;;;15.07;7.00;;;16.20;80.60;;;;;;5033368;28;92594;-72
2022/05/09 06:35:52;;;;;;;12.10;6.65;;;16.30;80.30;;;;;;5017512;28;92448;-72
2022/05/09 06:38:27;;;;;;;12.43;5.93;;;16.10;80.50;;;;;;5017288;28;103994;-72
2022/05/09 06:41:07;;;;;;;12.63;6.43;;;15.90;80.60;;;;;;5017448;28;92936;-72
2022/05/09 06:44:02;;;;;;;14.43;6.47;;;15.70;80.90;;;;;;5005134;28;91829;-72
2022/05/09 06:46:29;;;;;;;15.23;6.20;;;15.50;81.90;;;;;;5016981;28;107500;-72
2022/05/09 06:48:56;;;;;;;12.07;6.30;;;15.30;82.00;;;;;;5017310;28;95813;-72
2022/05/09 06:51:23;;;;;;;13.80;6.25;;;15.20;82.50;;;;;;5016436;28;95223;-71
2022/05/09 06:53:51;;;;;;;14.32;6.32;;;15.00;82.00;;;;;;5016159;28;92566;-72
2022/05/09 06:56:18;;;;;;;14.75;5.57;;;15.00;83.20;;;;;;5017554;28;92453;-71
2022/05/09 06:58:45;;;;;;;14.80;6.65;;;14.90;83.10;;;;;;5032429;28;93000;-72
2022/05/09 07:01:17;;;;;;;16.60;6.90;;;14.90;83.30;;;;;;5017484;28;92857;-72
2022/05/09 07:03:48;;;;;;;11.48;6.22;;;14.90;82.80;;;;;;5015993;28;92501;-72
2022/05/09 07:06:16;;;;;;;16.73;5.70;;;14.90;83.30;;;;;;5017677;28;92503;-72
2022/05/09 07:08:43;;;;;;;13.57;6.15;;;15.00;83.70;;;;;;4999495;28;95183;-72
2022/05/09 07:11:11;;;;;;;13.35;5.88;;;15.10;82.30;;;;;;5015923;28;92538;-72
2022/05/09 07:14:19;;;;;;;12.97;5.70;;;15.10;81.80;;;;;;5017380;28;92346;-72
2022/05/09 07:16:56;;;;;;;9.88;4.75;;;15.20;82.20;;;;;;5020059;28;94816;-72
2022/05/09 07:19:23;;;;;;;15.02;6.00;;;15.20;82.00;;;;;;5019168;28;94323;-72
2022/05/09 07:21:49;;;;;;;10.82;5.28;;;15.20;81.50;;;;;;5019055;28;92965;-72
2022/05/09 07:24:16;;;;;;;11.27;5.65;;;15.40;81.40;;;;;;5018809;28;92548;-72
2022/05/09 07:26:43;;;;;;;11.35;5.05;;;15.50;80.50;;;;;;5019120;28;92510;-72
2022/05/09 07:29:10;;;;;;;9.13;5.30;;;15.60;80.10;;;;;;5036735;28;93328;-72
2022/05/09 07:31:43;;;;;;;13.95;6.70;;;15.70;79.20;;;;;;5017863;28;92920;-72
2022/05/09 07:34:13;;;;;;;9.65;5.30;;;15.80;78.20;;;;;;5037754;28;92154;-72
2022/05/09 07:36:40;;;;;;;11.70;5.53;;;15.70;78.30;;;;;;5018671;28;92553;-71
2022/05/09 07:39:10;;;;;;;10.02;5.43;;;15.80;77.80;;;;;;5018670;28;95785;-72
2022/05/09 07:41:38;;;;;;;8.80;4.80;;;15.90;77.80;;;;;;5017028;28;94832;-72
2022/05/09 07:44:05;;;;;;;10.77;5.63;;;16.00;77.50;;;;;;5036687;28;92435;-72
2022/05/09 07:46:33;;;;;;;14.73;5.63;;;16.10;77.30;;;;;;5036371;28;99306;-72
2022/05/09 07:49:10;;;;;;;11.40;5.70;;;16.20;76.90;;;;;;5036576;28;93354;-72
2022/05/09 07:51:37;;;;;;;7.97;5.60;;;16.20;77.20;;;;;;5036043;28;112274;-72
2022/05/09 07:54:05;;;;;;;9.30;5.07;;;16.40;76.30;;;;;;5018629;28;92586;-71
2022/05/09 07:56:37;;;;;;;10.40;5.72;;;16.70;75.30;;;;;;5036926;28;92350;-71
2022/05/09 07:59:04;;;;;;;10.85;6.00;;;17.20;74.30;;;;;;5018756;28;92586;-72
2022/05/09 08:01:31;;;;;;;10.98;5.70;;;17.70;72.50;;;;;;5036573;28;94587;-72
2022/05/09 08:04:04;;;;;;;9.60;7.10;;;18.50;72.00;;;;;;5019119;28;92511;-72
2022/05/09 08:06:31;;;;;;;8.02;5.70;;;19.60;69.50;;;;;;5033852;28;94940;-72
2022/05/09 08:09:00;;;;;;;10.07;5.35;;;20.90;64.10;;;;;;5036234;28;93343;-72
2022/05/09 08:11:27;;;;;;;9.35;5.97;;;22.10;59.40;;;;;;5018300;28;92711;-72
2022/05/09 08:13:54;;;;;;;11.07;5.38;;;23.20;55.30;;;;;;5034736;28;92833;-72
2022/05/09 08:16:21;;;;;;;12.68;7.40;;;24.30;51.60;;;;;;5036437;28;92431;-72
2022/05/09 08:18:49;;;;;;;8.48;5.53;;;25.30;48.20;;;;;;5035935;28;94612;-72
2022/05/09 08:21:16;;;;;;;10.02;5.30;;;26.40;45.40;;;;;;5018126;28;92939;-72
2022/05/09 08:23:45;;;;;;;10.95;6.70;;;27.40;43.20;;;;;;5018981;28;91850;-73
2022/05/09 08:26:13;;;;;;;10.80;5.40;;;28.50;40.50;;;;;;5017844;28;92631;-73
2022/05/09 08:28:40;;;;;;;8.95;6.65;;;29.10;37.30;;;;;;5017865;28;94415;-73
2022/05/09 08:31:07;;;;;;;7.43;6.15;;;29.60;35.40;;;;;;5016350;28;95899;-73
2022/05/09 08:33:34;;;;;;;10.73;5.15;;;30.00;34.30;;;;;;5036243;28;92506;-73
2022/05/09 08:36:03;;;;;;;7.28;4.47;;;30.40;32.80;;;;;;5036117;28;92445;-73
2022/05/09 08:38:31;;;;;;;9.77;5.07;;;30.60;31.20;;;;;;5035913;28;93254;-73
2022/05/09 08:41:11;;;;;;;9.82;4.45;;;30.60;30.90;;;;;;5017405;28;95663;-73
2022/05/09 08:44:01;;;;;;;9.27;5.00;;;31.10;30.40;;;;;;5017840;28;92395;-73
2022/05/09 08:46:40;;;;;;;8.15;4.63;;;31.30;29.90;;;;;;5017686;28;92626;-72
2022/05/09 08:49:13;;;;;;;7.53;5.55;;;31.40;30.40;;;;;;5017827;28;94297;-73
2022/05/09 08:52:18;;;;;;;10.02;5.05;;;31.30;29.10;;;;;;5035559;28;92687;-72
2022/05/09 08:54:45;;;;;;;8.65;4.47;;;31.10;28.80;;;;;;5035835;28;92458;-72
2022/05/09 08:57:23;;;;;;;9.55;4.65;;;30.40;29.50;;;;;;5034582;28;94813;-72
2022/05/09 09:00:07;;;;;;;5.70;4.03;;;30.30;29.60;;;;;;5035975;28;93027;-72
2022/05/09 09:02:44;;;;;;;7.05;4.10;;;29.80;29.80;;;;;;5017545;28;95519;-72
2022/05/09 09:05:14;;;;;;;7.93;3.90;;;29.00;30.80;;;;;;5035580;28;92381;-72
2022/05/09 09:08:11;;;;;;;9.05;4.05;;;28.30;31.40;;;;;;5035490;28;92526;-72
2022/05/09 09:11:14;;;;;;;6.05;4.07;;;27.70;30.50;;;;;;5017125;28;94435;-72
2022/05/09 09:13:48;;;;;;;7.22;4.28;;;26.50;33.20;;;;;;5035338;28;92703;-72
2022/05/09 09:16:33;;;;;;;8.38;4.63;;;25.60;32.90;;;;;;5036187;28;92216;-72
2022/05/09 09:19:39;;;;;;;9.10;3.88;;;25.30;34.30;;;;;;5035588;28;92804;-72
2022/05/09 09:22:37;;;;;;;8.70;3.75;;;24.70;35.00;;;;;;5035138;28;93797;-71
2022/05/09 09:25:07;;;;;;;8.68;4.50;;;23.80;36.40;;;;;;5033932;28;94777;-72
2022/05/09 09:27:47;;;;;;;9.90;4.43;;;23.20;38.10;;;;;;5017235;28;92487;-72
2022/05/09 09:30:18;;;;;;;9.23;5.55;;;23.10;38.10;;;;;;5033473;28;94957;-72
2022/05/09 09:32:57;;;;;;;10.77;5.45;;;22.70;39.00;;;;;;5035434;28;93142;-72
2022/05/09 09:35:36;;;;;;;7.78;3.95;;;22.70;39.70;;;;;;5035074;28;93042;-72
2022/05/09 09:38:21;;;;;;;6.65;3.25;;;22.60;40.00;;;;;;5016991;28;92481;-72
2022/05/09 09:40:49;;;;;;;8.57;3.90;;;22.70;40.80;;;;;;5035525;28;92335;-72
2022/05/09 09:43:18;;;;;;;8.82;4.10;;;22.40;39.90;;;;;;5017092;28;93616;-72
2022/05/09 09:46:00;;;;;;;7.85;3.88;;;22.30;40.50;;;;;;5034674;28;107575;-72
2022/05/09 09:48:30;;;;;;;8.25;3.90;;;22.40;39.70;;;;;;5017191;28;92587;-72
2022/05/09 09:51:04;;;;;;;8.20;3.47;;;22.40;40.20;;;;;;5016478;28;94840;-72
2022/05/09 09:53:41;;;;;;;7.72;3.00;;;22.30;40.20;;;;;;5034998;28;93181;-72
2022/05/09 09:56:22;;;;;;;9.20;3.08;;;22.30;41.70;;;;;;5037359;28;93877;-72
2022/05/09 09:58:57;;;;;;;7.45;4.32;;;22.30;40.70;;;;;;5020369;28;92533;-72
2022/05/09 10:01:34;;;;;;;7.85;3.05;;;22.30;41.10;;;;;;5038262;28;92411;-72
2022/05/09 10:04:25;;;;;;;7.22;3.33;;;22.20;40.90;;;;;;5038617;28;92391;-72
2022/05/09 10:07:10;;;;;;;10.73;4.05;;;22.20;40.90;;;;;;5038499;28;93057;-72
2022/05/09 10:09:41;;;;;;;6.40;4.47;;;22.00;41.40;;;;;;5039008;28;91670;-72
2022/05/09 10:12:28;;;;;;;6.30;3.65;;;22.00;41.30;;;;;;5019902;28;92486;-72
2022/05/09 10:14:56;;;;;;;6.22;3.58;;;21.90;41.40;;;;;;5036721;28;95727;-72
2022/05/09 10:17:26;;;;;;;6.85;2.65;;;22.00;41.70;;;;;;5017882;28;94848;-72
2022/05/09 10:19:55;;;;;;;6.57;3.03;;;22.00;43.20;;;;;;5020155;28;92417;-72
2022/05/09 10:25:30;;;;;;;9.43;3.78;;;22.10;43.20;;;;;;5037712;28;94497;-72
2022/05/09 10:28:16;;;;;;;8.53;3.40;;;22.30;42.80;;;;;;5038113;28;92513;-72
2022/05/09 10:30:47;;;;;;;6.30;3.80;;;22.40;41.90;;;;;;5019745;28;92494;-72
2022/05/09 10:33:38;;;;;;;6.75;3.15;;;22.40;42.50;;;;;;5019779;28;92393;-72
2022/05/09 10:36:13;;;;;;;7.05;4.07;;;22.50;42.40;;;;;;5037178;28;91832;-71
2022/05/09 10:38:41;;;;;;;5.00;3.88;;;22.60;41.60;;;;;;5019390;28;95408;-71
2022/05/09 10:41:20;;;;;;;9.98;3.97;;;22.60;41.60;;;;;;5037615;28;92539;-72
2022/05/09 10:43:56;;;;;;;7.25;3.75;;;22.70;41.50;;;;;;5035563;28;94826;-71
2022/05/09 10:46:35;;;;;;;7.93;3.67;;;22.80;41.70;;;;;;5019829;28;93302;-72
2022/05/09 10:49:12;;;;;;;7.57;3.60;;;22.80;43.10;;;;;;5036641;28;93054;-71
2022/05/09 10:52:04;;;;;;;4.78;2.30;;;22.90;42.30;;;;;;5019802;28;92842;-72
2022/05/09 10:55:03;;;;;;;6.28;3.53;;;22.90;41.40;;;;;;5036460;28;92631;-72
2022/05/09 10:57:56;;;;;;;5.63;2.67;;;23.00;42.40;;;;;;5011207;28;95918;-72
2022/05/09 11:00:27;;;;;;;7.68;2.90;;;23.00;41.80;;;;;;5034779;28;92991;-72
2022/05/09 11:03:20;;;;;;;5.28;3.00;;;23.10;41.90;;;;;;5038363;28;91715;-72
2022/05/09 11:06:12;;;;;;;6.82;2.47;;;23.30;42.60;;;;;;5037471;27;92432;-72
2022/05/09 11:08:54;;;;;;;9.48;2.80;;;23.40;41.90;;;;;;5018999;28;97934;-71
2022/05/09 11:12:10;;;;;;;6.82;3.85;;;23.50;41.40;;;;;;5017411;28;94919;-72
2022/05/09 11:14:46;;;;;;;9.75;3.60;;;23.50;42.10;;;;;;5013020;28;92582;-72
2022/05/09 11:17:33;;;;;;;6.47;3.33;;;23.60;42.00;;;;;;5036701;28;93064;-72
2022/05/09 11:20:29;;;;;;;6.57;3.72;;;23.80;42.20;;;;;;5037469;28;93423;-72
2022/05/09 11:23:32;;;;;;;7.18;3.22;;;23.80;41.20;;;;;;5027774;28;92981;-72
2022/05/09 11:26:18;;;;;;;6.95;3.28;;;23.70;40.90;;;;;;5037633;28;92809;-72
2022/05/09 11:29:15;;;;;;;4.75;2.60;;;23.60;40.80;;;;;;5037305;28;92439;-72
2022/05/09 11:31:55;;;;;;;8.70;4.38;;;23.60;41.70;;;;;;5019129;28;94976;-72
2022/05/09 11:34:45;;;;;;;9.30;4.25;;;23.70;41.40;;;;;;5037031;28;92495;-72
2022/05/09 11:37:38;;;;;;;4.10;2.70;;;23.90;42.20;;;;;;5037019;28;93351;-72
2022/05/09 11:40:29;;;;;;;7.53;3.38;;;24.00;41.60;;;;;;5036078;28;94847;-72
2022/05/09 11:43:35;;;;;;;7.47;3.92;;;24.10;42.20;;;;;;5036972;28;93367;-72
2022/05/09 11:46:26;;;;;;;4.72;4.00;;;24.20;40.80;;;;;;5036812;28;92770;-72
2022/05/09 11:49:09;;;;;;;7.03;3.70;;;24.20;41.10;;;;;;5018785;28;92522;-72
2022/05/09 11:51:46;;;;;;;7.93;2.90;;;24.20;39.50;;;;;;5036452;28;92447;-72
2022/05/09 11:54:18;;;;;;;6.63;3.45;;;24.30;40.00;;;;;;5018400;28;95816;-71
2022/05/09 11:56:50;;;;;;;7.40;2.73;;;24.30;40.20;;;;;;5036717;28;93049;-72
2022/05/09 11:59:30;;;;;;;5.28;3.55;;;24.40;41.50;;;;;;5018073;28;91937;-72
2022/05/09 12:02:09;;;;;;;6.32;3.67;;;24.50;41.20;;;;;;5018258;28;92456;-72
2022/05/09 12:04:45;;;;;;;5.88;2.72;;;24.60;39.90;;;;;;5036489;28;93225;-72
2022/05/09 12:07:21;;;;;;;6.50;2.60;;;24.60;40.20;;;;;;5035227;28;94840;-72
2022/05/09 12:10:15;;;;;;;7.05;2.70;;;24.80;40.70;;;;;;5001870;28;92870;-72
2022/05/09 12:12:48;;;;;;;6.05;3.08;;;24.80;39.90;;;;;;5036251;28;92427;-72
2022/05/09 12:15:15;;;;;;;6.18;4.13;;;24.80;40.60;;;;;;5036469;28;93233;-72
2022/05/09 12:17:44;;;;;;;6.63;3.83;;;25.00;40.20;;;;;;5030054;27;94598;-72
2022/05/09 12:20:37;;;;;;;6.50;4.03;;;25.10;39.90;;;;;;5015118;28;92893;-72
2022/05/09 12:23:11;;;;;;;8.68;4.10;;;25.30;40.30;;;;;;5010230;28;92675;-72
2022/05/09 12:25:48;;;;;;;6.50;3.90;;;25.20;40.00;;;;;;5015093;28;92210;-72
2022/05/09 12:28:20;;;;;;;6.53;3.70;;;25.30;40.30;;;;;;5014588;28;94854;-72
2022/05/09 12:30:54;;;;;;;4.40;2.38;;;25.30;39.70;;;;;;5016488;28;92587;-72
2022/05/09 12:33:21;;;;;;;6.18;2.60;;;25.40;40.10;;;;;;5015131;28;94942;-72
2022/05/09 12:35:51;;;;;;;6.18;3.35;;;25.50;39.60;;;;;;5015534;28;93297;-72
2022/05/09 12:38:35;;;;;;;10.00;2.90;;;25.60;39.80;;;;;;5031196;28;92895;-72
2022/05/09 12:41:14;;;;;;;7.93;3.42;;;25.70;39.70;;;;;;5016176;28;92396;-72
2022/05/09 12:44:10;;;;;;;7.30;3.70;;;25.70;39.40;;;;;;5016049;28;92501;-72
2022/05/09 12:46:51;;;;;;;9.02;3.75;;;25.70;39.70;;;;;;5011104;28;92502;-72
2022/05/09 12:49:22;;;;;;;6.45;3.95;;;25.70;40.20;;;;;;5015861;28;92498;-72
2022/05/09 12:51:56;;;;;;;9.25;4.00;;;25.80;40.90;;;;;;5014592;28;91800;-72
2022/05/09 12:54:26;;;;;;;6.55;4.05;;;25.80;39.20;;;;;;4997526;28;92645;-72
2022/05/09 12:56:59;;;;;;;7.15;4.53;;;25.90;39.70;;;;;;5015312;28;100412;-72
2022/05/09 12:59:28;;;;;;;5.20;3.22;;;25.90;39.20;;;;;;5014471;28;94774;-72
2022/05/09 13:02:00;;;;;;;9.05;4.25;;;26.00;39.80;;;;;;5015725;28;92314;-72
2022/05/09 13:04:48;;;;;;;8.13;3.05;;;25.90;39.70;;;;;;5015280;28;93097;-72
2022/05/09 13:07:16;;;;;;;3.63;2.53;;;25.90;39.20;;;;;;5014095;28;93810;-72
2022/05/09 13:09:51;;;;;;;6.78;3.90;;;25.80;38.50;;;;;;5015123;28;92965;-72
2022/05/09 13:12:23;;;;;;;;;;;25.80;38.20;;;;;;5014906;28;92606;-72
2022/05/09 13:14:54;;;;;;;4.97;3.17;;;25.50;39.00;;;;;;5016544;28;92506;-72
2022/05/09 13:17:36;;;;;;;7.25;3.45;;;25.60;39.00;;;;;;5013520;28;97988;-72
2022/05/09 13:20:22;;;;;;;4.88;3.72;;;25.80;39.40;;;;;;5015423;28;92544;-72
2022/05/09 13:23:10;;;;;;;6.65;3.83;;;25.60;38.60;;;;;;5030706;28;92546;-72
2022/05/09 13:25:50;;;;;;;6.22;4.82;;;25.50;38.70;;;;;;5013793;28;94772;-72
2022/05/09 13:28:22;;;;;;;8.70;2.85;;;25.40;39.30;;;;;;5015339;28;93883;-72
2022/05/09 13:30:55;;;;;;;4.10;2.92;;;25.50;40.00;;;;;;5016800;28;95648;-72